createdAt,value
2017-12-22T00:00:56.012Z,36.17
2017-12-22T00:03:24.237Z,33.00
2017-12-22T00:05:52.478Z,32.23
2017-12-22T00:08:20.694Z,32.70
2017-12-22T00:10:49.685Z,34.67
2017-12-22T00:13:18.897Z,32.30
2017-12-22T00:15:48.790Z,31.20
2017-12-22T00:18:17.794Z,32.27
2017-12-22T00:20:46.018Z,35.03
2017-12-22T00:23:14.245Z,35.00
2017-12-22T00:25:43.230Z,30.70
2017-12-22T00:28:11.464Z,31.33
2017-12-22T00:30:39.685Z,31.43
2017-12-22T00:33:07.906Z,30.40
2017-12-22T00:35:36.114Z,34.50
2017-12-22T00:38:05.109Z,35.30
2017-12-22T00:40:34.098Z,29.90
2017-12-22T00:43:02.409Z,34.20
2017-12-22T00:45:31.380Z,34.47
2017-12-22T00:47:59.590Z,30.73
2017-12-22T00:50:27.828Z,32.67
2017-12-22T00:52:56.039Z,30.37
2017-12-22T00:55:24.276Z,29.17
2017-12-22T00:57:52.657Z,30.70
2017-12-22T01:00:20.879Z,28.80
2017-12-22T01:02:49.083Z,28.57
2017-12-22T01:05:17.315Z,27.33
2017-12-22T01:07:45.517Z,29.57
2017-12-22T01:10:13.727Z,28.80
2017-12-22T01:12:41.922Z,30.27
2017-12-22T01:15:10.894Z,28.80
2017-12-22T01:17:45.825Z,29.20
2017-12-22T01:20:14.822Z,29.90
2017-12-22T01:22:43.081Z,27.37
2017-12-22T01:25:11.281Z,27.60
2017-12-22T01:27:40.262Z,28.90
2017-12-22T01:30:09.249Z,29.00
2017-12-22T01:32:37.469Z,33.03
2017-12-22T01:35:05.690Z,30.60
2017-12-22T01:37:33.912Z,29.10
2017-12-22T01:40:02.131Z,33.03
2017-12-22T01:42:31.131Z,28.63
2017-12-22T01:44:59.341Z,30.40
2017-12-22T01:47:27.588Z,28.83
2017-12-22T01:49:55.827Z,28.70
2017-12-22T01:52:24.063Z,27.00
2017-12-22T01:54:52.291Z,26.00
2017-12-22T01:57:20.490Z,29.47
2017-12-22T01:59:49.791Z,29.33
2017-12-22T02:02:17.982Z,31.50
2017-12-22T02:04:46.201Z,32.53
2017-12-22T02:07:14.423Z,31.00
2017-12-22T02:09:43.429Z,29.37
2017-12-22T02:12:11.656Z,29.10
2017-12-22T02:14:39.855Z,29.17
2017-12-22T02:17:08.846Z,26.40
2017-12-22T02:19:37.826Z,30.83
2017-12-22T02:22:06.839Z,29.40
2017-12-22T02:24:35.822Z,26.63
2017-12-22T02:27:04.807Z,28.20
2017-12-22T02:29:33.062Z,27.10
2017-12-22T02:32:01.281Z,29.83
2017-12-22T02:34:29.741Z,28.37
2017-12-22T02:36:58.730Z,29.33
2017-12-22T02:39:27.719Z,28.90
2017-12-22T02:41:56.730Z,26.90
2017-12-22T02:44:25.717Z,27.17
2017-12-22T02:46:54.694Z,27.90
2017-12-22T02:49:23.195Z,27.83
2017-12-22T02:51:52.175Z,30.33
2017-12-22T02:54:21.167Z,30.93
2017-12-22T02:56:50.158Z,26.60
2017-12-22T02:59:19.146Z,30.30
2017-12-22T03:01:48.163Z,26.73
2017-12-22T03:04:16.398Z,25.37
2017-12-22T03:06:44.662Z,28.30
2017-12-22T03:09:12.886Z,29.90
2017-12-22T03:11:41.115Z,28.47
2017-12-22T03:14:09.345Z,28.93
2017-12-22T03:16:37.581Z,29.70
2017-12-22T03:19:06.586Z,26.87
2017-12-22T03:21:35.570Z,27.37
2017-12-22T03:24:03.795Z,28.90
2017-12-22T03:26:32.049Z,28.57
2017-12-22T03:29:00.310Z,33.33
2017-12-22T03:31:28.570Z,30.77
2017-12-22T03:33:56.783Z,30.90
2017-12-22T03:36:25.010Z,29.43
2017-12-22T03:38:53.228Z,30.00
2017-12-22T03:41:21.474Z,29.70
2017-12-22T03:43:50.473Z,31.27
2017-12-22T03:46:19.489Z,32.17
2017-12-22T03:48:47.731Z,28.53
2017-12-22T03:51:16.742Z,29.93
2017-12-22T03:53:45.723Z,29.50
2017-12-22T03:56:14.714Z,27.93
2017-12-22T03:58:43.716Z,29.47
2017-12-22T04:01:12.714Z,27.97
2017-12-22T04:03:40.958Z,28.90
2017-12-22T04:06:09.981Z,29.30
2017-12-22T04:08:38.210Z,29.03
2017-12-22T04:11:06.721Z,31.17
2017-12-22T04:13:35.564Z,27.03
2017-12-22T04:16:04.130Z,31.07
2017-12-22T04:18:33.383Z,28.80
2017-12-22T04:21:02.414Z,27.63
2017-12-22T04:23:30.657Z,29.37
2017-12-22T04:25:58.861Z,29.90
2017-12-22T04:28:27.096Z,31.73
2017-12-22T04:30:55.302Z,28.23
2017-12-22T04:33:23.554Z,25.17
2017-12-22T04:35:52.562Z,26.90
2017-12-22T04:38:20.821Z,29.97
2017-12-22T04:40:49.819Z,29.77
2017-12-22T04:43:18.817Z,28.93
2017-12-22T04:45:47.821Z,30.60
2017-12-22T04:48:16.102Z,30.60
2017-12-22T04:50:44.262Z,30.43
2017-12-22T04:53:12.536Z,30.90
2017-12-22T04:55:40.781Z,31.77
2017-12-22T04:58:09.012Z,30.30
2017-12-22T05:00:37.254Z,33.27
2017-12-22T05:03:06.830Z,33.57
2017-12-22T05:05:35.179Z,32.90
2017-12-22T05:08:03.416Z,30.57
2017-12-22T05:10:31.670Z,33.27
2017-12-22T05:13:00.672Z,33.17
2017-12-22T05:15:30.495Z,33.07
2017-12-22T05:17:58.725Z,31.63
2017-12-22T05:20:26.958Z,34.40
2017-12-22T05:22:55.242Z,33.80
2017-12-22T05:25:23.479Z,32.43
2017-12-22T05:27:52.494Z,33.33
2017-12-22T05:30:20.754Z,34.60
2017-12-22T05:32:49.782Z,36.97
2017-12-22T05:35:18.430Z,35.53
2017-12-22T05:37:46.672Z,37.80
2017-12-22T05:40:15.018Z,36.57
2017-12-22T05:42:43.228Z,34.37
2017-12-22T05:45:12.187Z,37.60
2017-12-22T05:47:40.443Z,35.27
2017-12-22T05:50:08.675Z,34.87
2017-12-22T05:52:36.914Z,33.50
2017-12-22T05:55:05.137Z,32.53
2017-12-22T05:57:33.344Z,31.40
2017-12-22T06:00:01.590Z,30.30
2017-12-22T06:02:30.622Z,31.83
2017-12-22T06:04:59.388Z,28.00
2017-12-22T06:07:28.350Z,28.03
2017-12-22T06:09:56.585Z,29.67
2017-12-22T06:12:25.127Z,26.00
2017-12-22T06:14:54.134Z,26.47
2017-12-22T06:17:22.378Z,30.00
2017-12-22T06:19:50.614Z,26.53
2017-12-22T06:22:18.867Z,25.10
2017-12-22T06:24:47.114Z,27.40
2017-12-22T06:27:16.114Z,26.80
2017-12-22T06:29:45.115Z,25.20
2017-12-22T06:32:14.105Z,25.07
2017-12-22T06:34:42.359Z,27.37
2017-12-22T06:37:10.586Z,25.40
2017-12-22T06:39:39.130Z,25.17
2017-12-22T06:42:08.125Z,26.87
2017-12-22T06:44:37.224Z,24.67
2017-12-22T06:47:06.276Z,24.00
2017-12-22T06:49:34.505Z,24.57
2017-12-22T06:52:02.750Z,22.30
2017-12-22T06:54:31.738Z,23.27
2017-12-22T06:57:00.013Z,24.53
2017-12-22T06:59:28.507Z,22.57
2017-12-22T07:01:56.733Z,25.50
2017-12-22T07:04:25.087Z,23.50
2017-12-22T07:06:53.301Z,21.40
2017-12-22T07:09:21.536Z,27.20
2017-12-22T07:11:49.754Z,28.30
2017-12-22T07:14:18.135Z,28.10
2017-12-22T07:16:46.354Z,24.50
2017-12-22T07:19:14.591Z,29.17
2017-12-22T07:21:42.850Z,30.00
2017-12-22T07:24:11.106Z,32.43
2017-12-22T07:26:39.330Z,30.10
2017-12-22T07:29:07.920Z,27.30
2017-12-22T07:31:36.906Z,27.50
2017-12-22T07:34:05.899Z,24.00
2017-12-22T07:36:34.890Z,30.13
2017-12-22T07:39:03.886Z,25.23
2017-12-22T07:41:32.877Z,25.50
2017-12-22T07:44:01.855Z,29.07
2017-12-22T07:46:30.305Z,27.80
2017-12-22T07:48:58.551Z,27.53
2017-12-22T07:51:26.856Z,28.73
2017-12-22T07:53:55.090Z,29.53
2017-12-22T07:56:23.411Z,27.23
2017-12-22T07:58:51.941Z,26.70
2017-12-22T08:01:21.362Z,28.63
2017-12-22T08:03:49.629Z,27.83
2017-12-22T08:06:18.094Z,27.60
2017-12-22T08:08:46.439Z,31.53
2017-12-22T08:11:14.674Z,28.07
2017-12-22T08:13:42.931Z,29.93
2017-12-22T08:16:11.934Z,30.93
2017-12-22T08:18:40.182Z,28.47
2017-12-22T08:21:09.174Z,32.33
2017-12-22T08:23:37.751Z,30.47
2017-12-22T08:26:05.965Z,27.30
2017-12-22T08:28:34.246Z,30.83
2017-12-22T08:31:02.474Z,25.70
2017-12-22T08:33:30.982Z,28.57
2017-12-22T08:35:59.967Z,29.47
2017-12-22T08:38:28.231Z,33.83
2017-12-22T08:40:57.234Z,25.33
2017-12-22T08:43:26.222Z,26.80
2017-12-22T08:45:54.466Z,34.07
2017-12-22T08:48:22.690Z,31.43
2017-12-22T08:50:50.926Z,32.40
2017-12-22T08:53:19.143Z,29.60
2017-12-22T08:55:47.434Z,29.93
2017-12-22T08:58:15.670Z,30.33
2017-12-22T09:00:44.660Z,30.70
2017-12-22T09:03:13.662Z,28.40
2017-12-22T09:05:41.923Z,24.33
2017-12-22T09:08:10.162Z,26.33
2017-12-22T09:10:38.381Z,29.37
2017-12-22T09:13:07.378Z,24.90
2017-12-22T09:15:36.375Z,30.33
2017-12-22T09:18:04.617Z,27.30
2017-12-22T09:20:33.629Z,27.50
2017-12-22T09:23:02.658Z,33.30
2017-12-22T09:25:30.884Z,27.83
2017-12-22T09:27:59.923Z,29.33
2017-12-22T09:30:28.139Z,27.60
2017-12-22T09:32:56.346Z,31.70
2017-12-22T09:35:25.332Z,31.00
2017-12-22T09:37:54.325Z,30.10
2017-12-22T09:40:22.547Z,28.30
2017-12-22T09:42:50.788Z,28.03
2017-12-22T09:45:20.674Z,30.80
2017-12-22T09:47:48.878Z,31.70
2017-12-22T09:50:17.129Z,31.03
2017-12-22T09:52:46.142Z,33.07
2017-12-22T09:55:14.452Z,32.17
2017-12-22T09:57:43.396Z,35.47
2017-12-22T10:00:12.614Z,29.83
2017-12-22T10:02:40.926Z,31.63
2017-12-22T10:05:09.450Z,34.33
2017-12-22T10:07:37.686Z,31.77
2017-12-22T10:10:05.946Z,34.97
2017-12-22T10:12:34.199Z,35.07
2017-12-22T10:15:02.419Z,33.10
2017-12-22T10:17:30.641Z,32.73
2017-12-22T10:19:58.878Z,35.50
2017-12-22T10:22:27.108Z,36.60
2017-12-22T10:24:55.339Z,34.60
2017-12-22T10:27:24.464Z,34.53
2017-12-22T10:29:52.702Z,36.43
2017-12-22T10:32:20.933Z,33.13
2017-12-22T10:34:49.172Z,34.50
2017-12-22T10:37:18.194Z,33.07
2017-12-22T10:39:46.426Z,30.73
2017-12-22T10:42:14.649Z,36.70
2017-12-22T10:44:42.903Z,28.23
2017-12-22T10:47:11.120Z,33.93
2017-12-22T10:49:39.362Z,34.03
2017-12-22T10:52:07.590Z,30.47
2017-12-22T10:54:35.826Z,29.13
2017-12-22T10:57:04.089Z,32.23
2017-12-22T10:59:32.314Z,28.03
2017-12-22T11:02:00.585Z,28.03
2017-12-22T11:04:28.822Z,28.93
2017-12-22T11:06:57.046Z,26.80
2017-12-22T11:09:25.320Z,30.60
2017-12-22T11:11:53.590Z,24.67
2017-12-22T11:14:22.070Z,24.60
2017-12-22T11:16:50.346Z,21.63
2017-12-22T11:19:18.589Z,22.03
2017-12-22T11:21:46.795Z,23.00
2017-12-22T11:24:15.021Z,22.37
2017-12-22T11:26:43.359Z,19.13
2017-12-22T11:29:11.626Z,21.23
2017-12-22T11:31:39.847Z,18.83
2017-12-22T11:34:08.078Z,15.70
2017-12-22T11:36:36.768Z,15.17
2017-12-22T11:39:04.999Z,15.10
2017-12-22T11:41:33.229Z,16.50
2017-12-22T11:44:02.290Z,16.03
2017-12-22T11:46:31.034Z,19.03
2017-12-22T11:49:00.028Z,18.83
2017-12-22T11:51:28.256Z,15.80
2017-12-22T11:53:56.678Z,15.23
2017-12-22T11:56:24.924Z,17.67
2017-12-22T11:58:53.947Z,15.90
2017-12-22T12:01:22.267Z,18.60
2017-12-22T12:03:50.450Z,18.30
2017-12-22T12:06:18.674Z,16.17
2017-12-22T12:08:46.902Z,17.07
2017-12-22T12:11:15.911Z,19.03
2017-12-22T12:13:44.898Z,16.27
2017-12-22T12:16:13.910Z,18.43
2017-12-22T12:18:42.154Z,18.97
2017-12-22T12:21:10.650Z,15.60
2017-12-22T12:23:39.638Z,16.77
2017-12-22T12:26:09.686Z,17.60
2017-12-22T12:28:37.900Z,17.10
2017-12-22T12:31:06.185Z,16.53
2017-12-22T12:33:34.392Z,19.60
2017-12-22T12:36:03.374Z,19.57
2017-12-22T12:38:32.376Z,19.10
2017-12-22T12:41:01.391Z,19.60
2017-12-22T12:43:30.361Z,19.40
2017-12-22T12:45:58.673Z,18.40
2017-12-22T12:48:27.214Z,20.13
2017-12-22T12:50:55.537Z,19.63
2017-12-22T12:53:23.771Z,20.20
2017-12-22T12:55:52.035Z,19.60
2017-12-22T12:58:20.269Z,20.43
2017-12-22T13:00:48.486Z,20.60
2017-12-22T13:03:16.965Z,18.47
2017-12-22T13:05:45.958Z,18.60
2017-12-22T13:08:14.936Z,18.40
2017-12-22T13:10:43.942Z,17.87
2017-12-22T13:13:12.157Z,17.40
2017-12-22T13:15:40.434Z,17.03
2017-12-22T13:18:08.663Z,14.80
2017-12-22T13:20:37.661Z,15.53
2017-12-22T13:23:06.652Z,15.67
2017-12-22T13:25:35.230Z,15.67
2017-12-22T13:28:03.468Z,18.33
2017-12-22T13:30:32.448Z,16.27
2017-12-22T13:33:01.433Z,16.93
2017-12-22T13:35:29.650Z,19.60
2017-12-22T13:37:57.881Z,17.70
2017-12-22T13:40:26.111Z,25.23
2017-12-22T13:42:54.339Z,21.83
2017-12-22T13:45:22.546Z,21.40
2017-12-22T13:47:51.580Z,20.97
2017-12-22T13:50:19.762Z,19.57
2017-12-22T13:52:48.022Z,18.20
2017-12-22T13:55:16.998Z,17.87
2017-12-22T13:57:46.006Z,18.60
2017-12-22T14:00:14.240Z,16.40
2017-12-22T14:02:42.468Z,18.40
2017-12-22T14:05:10.717Z,17.13
2017-12-22T14:07:39.710Z,18.37
2017-12-22T14:10:08.710Z,20.70
2017-12-22T14:12:36.978Z,20.20
2017-12-22T14:15:05.993Z,20.90
2017-12-22T14:17:34.197Z,21.23
2017-12-22T14:20:02.446Z,19.97
2017-12-22T14:22:30.670Z,17.63
2017-12-22T14:24:58.889Z,19.80
2017-12-22T14:27:27.143Z,21.77
2017-12-22T14:29:56.123Z,24.13
2017-12-22T14:32:25.434Z,20.17
2017-12-22T14:34:54.434Z,18.60
2017-12-22T14:37:22.677Z,21.00
2017-12-22T14:39:50.908Z,21.20
2017-12-22T14:42:19.154Z,20.53
2017-12-22T14:44:48.158Z,18.63
2017-12-22T14:47:16.411Z,17.83
2017-12-22T14:49:45.394Z,18.40
2017-12-22T14:52:13.635Z,18.07
2017-12-22T14:54:41.898Z,19.47
2017-12-22T14:57:10.137Z,18.50
2017-12-22T14:59:39.972Z,19.73
2017-12-22T15:02:08.181Z,18.40
2017-12-22T15:04:36.417Z,19.00
2017-12-22T15:07:04.662Z,20.03
2017-12-22T15:09:33.675Z,17.77
2017-12-22T15:12:01.928Z,19.90
2017-12-22T15:14:31.005Z,17.20
2017-12-22T15:16:59.248Z,16.63
2017-12-22T15:21:59.914Z,16.60
2017-12-22T15:24:28.201Z,15.00
2017-12-22T15:26:56.497Z,13.50
2017-12-22T15:29:24.676Z,15.30
2017-12-22T15:31:53.672Z,14.97
2017-12-22T15:34:21.940Z,16.63
2017-12-22T15:36:50.154Z,15.80
2017-12-22T15:39:18.399Z,15.77
2017-12-22T15:41:46.631Z,17.70
2017-12-22T15:44:14.869Z,19.83
2017-12-22T15:46:43.955Z,17.70
2017-12-22T15:49:12.178Z,16.07
2017-12-22T15:51:40.458Z,15.83
2017-12-22T15:54:08.689Z,18.10
2017-12-22T15:56:36.922Z,17.03
2017-12-22T15:59:05.957Z,20.03
2017-12-22T16:01:34.594Z,18.90
2017-12-22T16:04:02.832Z,21.73
2017-12-22T16:06:31.142Z,22.27
2017-12-22T16:08:59.428Z,21.47
2017-12-22T16:11:28.057Z,26.43
2017-12-22T16:13:56.902Z,23.87
2017-12-22T16:16:25.123Z,24.70
2017-12-22T16:18:53.389Z,24.10
2017-12-22T16:21:21.638Z,25.53
2017-12-22T16:23:49.903Z,24.43
2017-12-22T16:26:18.142Z,22.27
2017-12-22T16:28:46.380Z,21.77
2017-12-22T16:31:15.387Z,22.43
2017-12-22T16:33:43.634Z,22.90
2017-12-22T16:36:12.623Z,24.70
2017-12-22T16:38:41.645Z,24.00
2017-12-22T16:41:09.899Z,23.93
2017-12-22T16:43:38.130Z,23.90
2017-12-22T16:46:06.387Z,20.93
2017-12-22T16:48:34.627Z,21.50
2017-12-22T16:51:02.911Z,21.10
2017-12-22T16:53:31.155Z,24.70
2017-12-22T16:55:59.671Z,21.93
2017-12-22T16:58:28.654Z,21.63
2017-12-22T17:00:56.892Z,21.60
2017-12-22T17:03:25.115Z,20.20
2017-12-22T17:05:53.495Z,21.67
2017-12-22T17:08:21.755Z,19.03
2017-12-22T17:10:50.754Z,18.83
2017-12-22T17:13:18.986Z,21.47
2017-12-22T17:15:47.998Z,20.17
2017-12-22T17:18:16.214Z,17.97
2017-12-22T17:20:44.425Z,16.07
2017-12-22T17:23:12.649Z,19.43
2017-12-22T17:25:40.887Z,18.80
2017-12-22T17:28:09.488Z,21.60
2017-12-22T17:30:38.076Z,19.60
2017-12-22T17:33:06.316Z,20.27
2017-12-22T17:35:34.553Z,17.90
2017-12-22T17:38:02.804Z,19.00
2017-12-22T17:40:31.047Z,19.77
2017-12-22T17:42:59.290Z,20.67
2017-12-22T17:45:27.503Z,19.27
2017-12-22T17:47:55.727Z,21.37
2017-12-22T17:50:25.601Z,19.20
2017-12-22T17:52:53.839Z,17.87
2017-12-22T17:55:22.126Z,27.87
2017-12-22T17:57:50.367Z,24.97
2017-12-22T18:00:18.587Z,21.00
2017-12-22T18:02:46.823Z,19.53
2017-12-22T18:05:15.050Z,21.40
2017-12-22T18:07:44.045Z,19.20
2017-12-22T18:10:12.328Z,19.83
2017-12-22T18:12:40.579Z,20.30
2017-12-22T18:15:08.839Z,19.07
2017-12-22T18:17:37.074Z,18.87
2017-12-22T18:20:05.291Z,18.70
2017-12-22T18:22:33.554Z,20.73
2017-12-22T18:25:01.785Z,20.47
2017-12-22T18:27:30.815Z,18.33
2017-12-22T18:29:59.114Z,21.60
2017-12-22T18:32:27.361Z,17.87
2017-12-22T18:34:55.620Z,18.90
2017-12-22T18:37:24.589Z,19.30
2017-12-22T18:39:52.859Z,19.00
2017-12-22T18:42:21.857Z,17.87
2017-12-22T18:44:50.830Z,22.90
2017-12-22T18:47:20.247Z,18.83
2017-12-22T18:49:49.254Z,20.13
2017-12-22T18:52:17.698Z,19.30
2017-12-22T18:54:45.957Z,18.10
2017-12-22T18:57:14.986Z,18.47
2017-12-22T18:59:43.277Z,20.57
2017-12-22T19:02:14.202Z,20.30
2017-12-22T19:04:42.509Z,19.00
2017-12-22T19:07:11.483Z,19.87
2017-12-22T19:09:40.044Z,20.03
2017-12-22T19:12:08.619Z,20.33
2017-12-22T19:14:37.737Z,21.00
2017-12-22T19:17:06.140Z,22.13
2017-12-22T19:19:34.431Z,20.13
2017-12-22T19:22:02.789Z,20.60
2017-12-22T19:24:31.259Z,19.70
2017-12-22T19:26:59.707Z,21.63
2017-12-22T19:29:28.183Z,19.90
2017-12-22T19:31:56.681Z,22.03
2017-12-22T19:34:24.959Z,19.80
2017-12-22T19:36:54.178Z,19.80
2017-12-22T19:39:22.426Z,21.67
2017-12-22T19:41:51.430Z,17.77
2017-12-22T19:44:20.436Z,18.40
2017-12-22T19:46:48.678Z,19.27
2017-12-22T19:49:16.902Z,19.07
2017-12-22T19:51:45.143Z,21.43
2017-12-22T19:54:13.403Z,19.43
2017-12-22T19:56:41.686Z,21.43
2017-12-22T19:59:09.942Z,20.27
2017-12-22T20:01:39.026Z,20.53
2017-12-22T20:04:07.270Z,21.80
2017-12-22T20:06:35.579Z,20.87
2017-12-22T20:09:03.878Z,21.10
2017-12-22T20:11:32.134Z,20.97
2017-12-22T20:14:00.400Z,19.17
2017-12-22T20:16:28.748Z,20.13
2017-12-22T20:18:57.645Z,19.93
2017-12-22T20:21:26.107Z,20.47
2017-12-22T20:23:54.368Z,22.30
2017-12-22T20:26:22.664Z,20.93
2017-12-22T20:28:50.945Z,21.80
2017-12-22T20:31:19.238Z,21.97
2017-12-22T20:33:47.463Z,21.60
2017-12-22T20:36:15.754Z,21.83
2017-12-22T20:38:44.777Z,22.77
2017-12-22T20:41:13.046Z,19.30
2017-12-22T20:43:42.110Z,17.23
2017-12-22T20:46:10.492Z,21.67
2017-12-22T20:48:38.762Z,17.53
2017-12-22T20:51:07.067Z,21.50
2017-12-22T20:53:35.348Z,20.00
2017-12-22T20:56:03.678Z,20.90
2017-12-22T20:58:32.942Z,18.63
2017-12-22T21:01:01.211Z,19.83
2017-12-22T21:03:29.511Z,18.87
2017-12-22T21:05:57.887Z,19.90
2017-12-22T21:08:27.309Z,20.00
2017-12-22T21:10:56.475Z,18.40
2017-12-22T21:13:25.676Z,18.33
2017-12-22T21:15:54.411Z,17.73
2017-12-22T21:18:22.907Z,16.60
2017-12-22T21:20:51.856Z,17.33
2017-12-22T21:23:20.902Z,19.30
2017-12-22T21:25:49.267Z,19.40
2017-12-22T21:28:17.601Z,15.57
2017-12-22T21:30:45.948Z,18.10
2017-12-22T21:33:14.341Z,17.10
2017-12-22T21:35:42.988Z,17.03
2017-12-22T21:38:11.446Z,15.33
2017-12-22T21:40:40.012Z,15.87
2017-12-22T21:43:08.746Z,16.20
2017-12-22T21:45:37.376Z,15.83
2017-12-22T21:48:05.917Z,16.13
2017-12-22T21:50:34.295Z,14.37
2017-12-22T21:53:02.542Z,16.23
2017-12-22T21:55:31.002Z,19.30
2017-12-22T21:57:59.265Z,18.73
2017-12-22T22:00:27.582Z,18.00
2017-12-22T22:02:56.004Z,18.30
2017-12-22T22:05:24.331Z,20.73
2017-12-22T22:07:52.561Z,16.93
2017-12-22T22:10:20.780Z,16.40
2017-12-22T22:12:49.031Z,21.67
2017-12-22T22:15:17.240Z,16.07
2017-12-22T22:17:45.469Z,17.53
2017-12-22T22:20:13.687Z,19.53
2017-12-22T22:22:41.933Z,17.27
2017-12-22T22:25:10.923Z,17.90
2017-12-22T22:27:39.947Z,20.57
2017-12-22T22:30:08.176Z,16.90
2017-12-22T22:32:36.397Z,17.90
2017-12-22T22:35:04.621Z,19.60
2017-12-22T22:37:33.630Z,17.97
2017-12-22T22:40:02.636Z,17.30
2017-12-22T22:42:31.629Z,18.77
2017-12-22T22:44:59.869Z,15.57
2017-12-22T22:47:28.092Z,21.10
2017-12-22T22:49:56.323Z,18.47
2017-12-22T22:52:24.823Z,19.03
2017-12-22T22:54:53.845Z,17.30
2017-12-22T22:57:22.087Z,15.80
2017-12-22T22:59:51.085Z,17.70
2017-12-22T23:02:20.077Z,19.20
2017-12-22T23:04:49.090Z,21.00
2017-12-22T23:07:17.312Z,20.93
2017-12-22T23:09:45.560Z,20.70
2017-12-22T23:12:13.792Z,25.97
2017-12-22T23:14:42.025Z,23.00
2017-12-22T23:17:10.270Z,25.40
2017-12-22T23:19:38.496Z,26.67
2017-12-22T23:22:06.731Z,24.60
2017-12-22T23:24:35.158Z,24.73
2017-12-22T23:27:03.652Z,22.23
2017-12-22T23:29:31.905Z,22.13
2017-12-22T23:32:00.162Z,22.70
2017-12-22T23:34:28.390Z,24.63
2017-12-22T23:36:56.616Z,28.90
2017-12-22T23:39:24.879Z,25.63
2017-12-22T23:41:53.092Z,26.83
2017-12-22T23:44:22.108Z,24.70
2017-12-22T23:46:50.391Z,24.37
2017-12-22T23:49:19.386Z,27.03
2017-12-22T23:51:47.623Z,25.20
2017-12-22T23:54:15.866Z,28.37
2017-12-22T23:56:44.082Z,26.83
2017-12-22T23:59:12.322Z,30.10
